Time,TemperatureF,DewpointF,PressureIn,WindDirection,WindDirectionDegrees,WindSpeedMPH,WindSpeedGustMPH,Humidity,HourlyPrecipIn,Conditions,Clouds,dailyrainin,SoftwareType,DateUTC
2013-01-22 00:02:00,26.9,9.5,-100.00,North,-999,-999.0,-999.0,43,0.00,,,0.00,WSDL version 423,2013-01-22 05:02:00,
2013-01-22 00:05:00,26.8,9.3,-100.00,North,-999,-999.0,-999.0,43,0.00,,,0.00,WSDL version 423,2013-01-22 05:05:00,
2013-01-22 00:08:00,26.8,9.1,-100.00,North,-999,-999.0,-999.0,42,0.00,,,0.00,WSDL version 423,2013-01-22 05:08:00,
2013-01-22 00:14:00,26.6,8.8,-100.00,North,-999,-999.0,-999.0,42,0.00,,,0.00,WSDL version 423,2013-01-22 05:14:00,
2013-01-22 00:20:00,26.4,8.4,-100.00,North,-999,-999.0,-999.0,41,0.00,,,0.00,WSDL version 423,2013-01-22 05:20:00,
2013-01-22 00:23:00,26.4,8.2,-100.00,North,-999,-999.0,-999.0,41,0.00,,,0.00,WSDL version 423,2013-01-22 05:23:00,
2013-01-22 00:29:00,26.3,8.4,-100.00,North,-999,-999.0,-999.0,42,0.00,,,0.00,WSDL version 423,2013-01-22 05:29:00,
2013-01-22 00:35:00,26.1,8.3,-100.00,North,-999,-999.0,-999.0,42,0.00,,,0.00,WSDL version 423,2013-01-22 05:35:00,
2013-01-22 00:41:00,26.1,7.8,-100.00,North,-999,-999.0,-999.0,41,0.00,,,0.00,WSDL version 423,2013-01-22 05:41:00,
2013-01-22 00:47:00,26.1,7.6,-100.00,North,-999,-999.0,-999.0,41,0.00,,,0.00,WSDL version 423,2013-01-22 05:47:00,
2013-01-22 00:53:00,25.9,7.3,-100.00,North,-999,-999.0,-999.0,40,0.00,,,0.00,WSDL version 423,2013-01-22 05:53:00,
2013-01-22 00:59:00,25.7,7.4,-100.00,North,-999,-999.0,-999.0,41,0.00,,,0.00,WSDL version 423,2013-01-22 05:59:00,
2013-01-22 01:05:00,25.6,7.2,-100.00,North,-999,-999.0,-999.0,41,0.00,,,0.00,WSDL version 423,2013-01-22 06:05:00,
2013-01-22 01:11:00,25.5,7.2,-100.00,North,-999,-999.0,-999.0,41,0.00,,,0.00,WSDL version 423,2013-01-22 06:11:00,
2013-01-22 01:17:00,25.3,7.1,-100.00,North,-999,-999.0,-999.0,41,0.00,,,0.00,WSDL version 423,2013-01-22 06:17:00,
2013-01-22 01:23:00,25.3,7.5,-100.00,North,-999,-999.0,-999.0,42,0.00,,,0.00,WSDL version 423,2013-01-22 06:23:00,
2013-01-22 01:29:00,25.2,7.4,-100.00,North,-999,-999.0,-999.0,42,0.00,,,0.00,WSDL version 423,2013-01-22 06:29:00,
2013-01-22 01:35:00,25.0,7.2,-100.00,North,-999,-999.0,-999.0,42,0.00,,,0.00,WSDL version 423,2013-01-22 06:35:00,
2013-01-22 01:41:00,25.0,7.3,-100.00,North,-999,-999.0,-999.0,43,0.00,,,0.00,WSDL version 423,2013-01-22 06:41:00,
2013-01-22 01:47:00,24.8,7.5,-100.00,North,-999,-999.0,-999.0,43,0.00,,,0.00,WSDL version 423,2013-01-22 06:47:00,
2013-01-22 01:53:00,24.7,7.4,-100.00,North,-999,-999.0,-999.0,43,0.00,,,0.00,WSDL version 423,2013-01-22 06:53:00,
2013-01-22 01:59:00,24.6,7.4,-100.00,North,-999,-999.0,-999.0,43,0.00,,,0.00,WSDL version 423,2013-01-22 06:59:00,
2013-01-22 02:05:00,24.6,7.4,-100.00,North,-999,-999.0,-999.0,43,0.00,,,0.00,WSDL version 423,2013-01-22 07:05:00,
2013-01-22 02:11:00,24.6,7.4,-100.00,North,-999,-999.0,-999.0,43,0.00,,,0.00,WSDL version 423,2013-01-22 07:11:00,
2013-01-22 02:17:00,24.5,7.2,-100.00,North,-999,-999.0,-999.0,43,0.00,,,0.00,WSDL version 423,2013-01-22 07:17:00,
2013-01-22 02:23:00,24.4,7.2,-100.00,North,-999,-999.0,-999.0,43,0.00,,,0.00,WSDL version 423,2013-01-22 07:23:00,
2013-01-22 02:29:00,24.4,7.0,-100.00,North,-999,-999.0,-999.0,42,0.00,,,0.00,WSDL version 423,2013-01-22 07:29:00,
2013-01-22 02:35:00,24.4,6.7,-100.00,North,-999,-999.0,-999.0,42,0.00,,,0.00,WSDL version 423,2013-01-22 07:35:00,
2013-01-22 02:41:00,24.6,6.9,-100.00,North,-999,-999.0,-999.0,42,0.00,,,0.00,WSDL version 423,2013-01-22 07:41:00,
2013-01-22 02:47:00,24.6,6.9,-100.00,North,-999,-999.0,-999.0,42,0.00,,,0.00,WSDL version 423,2013-01-22 07:47:00,
2013-01-22 02:53:00,24.6,6.9,-100.00,North,-999,-999.0,-999.0,42,0.00,,,0.00,WSDL version 423,2013-01-22 07:53:00,
2013-01-22 02:59:00,24.4,6.8,-100.00,North,-999,-999.0,-999.0,43,0.00,,,0.00,WSDL version 423,2013-01-22 07:59:00,
2013-01-22 03:05:00,24.3,7.1,-100.00,North,-999,-999.0,-999.0,43,0.00,,,0.00,WSDL version 423,2013-01-22 08:05:00,
2013-01-22 03:11:00,24.1,6.9,-100.00,South,180,4.3,5.6,43,0.00,,,0.00,WSDL version 423,2013-01-22 08:11:00,
2013-01-22 03:17:00,23.7,6.5,-100.00,SSE,158,2.5,7.2,43,0.00,,,0.00,WSDL version 423,2013-01-22 08:17:00,
2013-01-22 03:23:00,23.5,6.4,-100.00,North,-999,-999.0,-999.0,43,0.00,,,0.00,WSDL version 423,2013-01-22 08:23:00,
2013-01-22 03:29:00,23.4,6.2,-100.00,North,-999,-999.0,-999.0,43,0.00,,,0.00,WSDL version 423,2013-01-22 08:29:00,
2013-01-22 03:35:00,23.2,6.0,-100.00,North,-999,-999.0,-999.0,43,0.00,,,0.00,WSDL version 423,2013-01-22 08:35:00,
2013-01-22 03:41:00,23.0,5.8,-100.00,North,-999,-999.0,-999.0,43,0.00,,,0.00,WSDL version 423,2013-01-22 08:41:00,
2013-01-22 03:47:00,22.8,5.7,-100.00,North,0,0.0,2.9,43,0.00,,,0.00,WSDL version 423,2013-01-22 08:47:00,
2013-01-22 03:53:00,22.6,5.5,-100.00,North,-999,-999.0,-999.0,43,0.00,,,0.00,WSDL version 423,2013-01-22 08:53:00,
2013-01-22 03:59:00,22.6,5.4,-100.00,North,-999,-999.0,-999.0,43,0.00,,,0.00,WSDL version 423,2013-01-22 08:59:00,
2013-01-22 04:05:00,22.3,5.5,-100.00,North,-999,-999.0,-999.0,44,0.00,,,0.00,WSDL version 423,2013-01-22 09:05:00,
2013-01-22 04:11:00,22.1,5.5,-100.00,North,0,0.0,5.4,44,0.00,,,0.00,WSDL version 423,2013-01-22 09:11:00,
2013-01-22 04:17:00,22.0,5.4,-100.00,North,-999,-999.0,-999.0,44,0.00,,,0.00,WSDL version 423,2013-01-22 09:17:00,
2013-01-22 04:23:00,21.9,5.3,-100.00,North,-999,-999.0,-999.0,44,0.00,,,0.00,WSDL version 423,2013-01-22 09:23:00,
2013-01-22 04:29:00,21.8,5.0,-100.00,North,-999,-999.0,-999.0,43,0.00,,,0.00,WSDL version 423,2013-01-22 09:29:00,
2013-01-22 04:35:00,21.6,4.6,-100.00,North,0,0.0,3.1,43,0.00,,,0.00,WSDL version 423,2013-01-22 09:35:00,
2013-01-22 04:41:00,21.5,4.5,-100.00,North,-999,-999.0,-999.0,43,0.00,,,0.00,WSDL version 423,2013-01-22 09:41:00,
2013-01-22 04:47:00,21.4,4.5,-100.00,North,-999,-999.0,-999.0,44,0.00,,,0.00,WSDL version 423,2013-01-22 09:47:00,
2013-01-22 04:53:00,21.2,4.6,-100.00,ESE,113,3.1,3.4,44,0.00,,,0.00,WSDL version 423,2013-01-22 09:53:00,
2013-01-22 04:59:00,21.2,4.6,-100.00,North,-999,-999.0,-999.0,44,0.00,,,0.00,WSDL version 423,2013-01-22 09:59:00,
2013-01-22 05:05:00,21.1,4.5,-100.00,North,-999,-999.0,-999.0,44,0.00,,,0.00,WSDL version 423,2013-01-22 10:05:00,
2013-01-22 05:11:00,21.0,4.5,-100.00,East,79,3.5,8.5,44,0.00,,,0.00,WSDL version 423,2013-01-22 10:11:00,
2013-01-22 05:17:00,20.8,4.3,-100.00,North,-999,-999.0,-999.0,44,0.00,,,0.00,WSDL version 423,2013-01-22 10:17:00,
2013-01-22 05:23:00,20.8,4.3,-100.00,East,101,5.8,6.5,44,0.00,,,0.00,WSDL version 423,2013-01-22 10:23:00,
2013-01-22 05:29:00,20.7,4.1,-100.00,SE,146,1.6,6.5,44,0.00,,,0.00,WSDL version 423,2013-01-22 10:29:00,
2013-01-22 05:35:00,20.5,4.0,-100.00,South,180,4.7,7.2,44,0.00,,,0.00,WSDL version 423,2013-01-22 10:35:00,
2013-01-22 05:41:00,20.5,4.0,-100.00,SE,135,3.4,7.2,44,0.00,,,0.00,WSDL version 423,2013-01-22 10:41:00,
2013-01-22 05:47:00,20.4,3.9,-100.00,SE,135,3.4,6.3,44,0.00,,,0.00,WSDL version 423,2013-01-22 10:47:00,
2013-01-22 05:53:00,20.3,3.8,-100.00,North,-999,-999.0,-999.0,44,0.00,,,0.00,WSDL version 423,2013-01-22 10:53:00,
2013-01-22 05:59:00,20.2,3.7,-100.00,North,-999,-999.0,-999.0,44,0.00,,,0.00,WSDL version 423,2013-01-22 10:59:00,
2013-01-22 06:05:00,20.1,3.6,-100.00,SE,135,5.3,5.3,44,0.00,,,0.00,WSDL version 423,2013-01-22 11:05:00,
2013-01-22 06:11:00,20.2,3.7,-100.00,East,90,7.4,7.4,44,0.00,,,0.00,WSDL version 423,2013-01-22 11:11:00,
2013-01-22 06:17:00,20.3,3.7,-100.00,SE,135,4.3,7.2,44,0.00,,,0.00,WSDL version 423,2013-01-22 11:17:00,
2013-01-22 06:23:00,20.1,3.6,-100.00,SSE,158,4.5,6.0,44,0.00,,,0.00,WSDL version 423,2013-01-22 11:23:00,
2013-01-22 06:31:00,20.2,3.7,-100.00,SE,128,4.9,6.3,44,0.00,,,0.00,WSDL version 423,2013-01-22 11:31:00,
2013-01-22 06:37:00,20.3,3.8,-100.00,SSE,150,3.1,5.6,44,0.00,,,0.00,WSDL version 423,2013-01-22 11:37:00,
2013-01-22 06:43:00,20.3,3.8,-100.00,East,90,3.8,7.8,44,0.00,,,0.00,WSDL version 423,2013-01-22 11:43:00,
2013-01-22 06:53:00,20.3,3.8,-100.00,SE,138,5.5,8.5,44,0.00,,,0.00,WSDL version 423,2013-01-22 11:53:00,
2013-01-22 06:59:00,20.3,3.8,-100.00,ESE,121,5.7,11.0,44,0.00,,,0.00,WSDL version 423,2013-01-22 11:59:00,
2013-01-22 07:05:00,20.5,4.0,-100.00,East,98,5.1,11.0,44,0.00,,,0.00,WSDL version 423,2013-01-22 12:05:00,
2013-01-22 07:11:00,20.3,3.8,-100.00,SE,143,5.1,10.7,44,0.00,,,0.00,WSDL version 423,2013-01-22 12:11:00,
2013-01-22 07:17:00,20.2,3.7,-100.00,ESE,105,3.5,10.7,44,0.00,,,0.00,WSDL version 423,2013-01-22 12:17:00,
2013-01-22 07:23:00,20.0,3.5,-100.00,SE,124,4.3,10.7,44,0.00,,,0.00,WSDL version 423,2013-01-22 12:23:00,
2013-01-22 07:29:00,19.8,3.3,-100.00,SE,132,4.6,8.5,44,0.00,,,0.00,WSDL version 423,2013-01-22 12:29:00,
2013-01-22 07:35:00,19.6,3.1,-100.00,SE,127,5.6,9.2,44,0.00,,,0.00,WSDL version 423,2013-01-22 12:35:00,
2013-01-22 07:41:00,19.4,3.0,-100.00,ESE,118,4.8,9.2,44,0.00,,,0.00,WSDL version 423,2013-01-22 12:41:00,
2013-01-22 07:47:00,19.4,3.0,-100.00,SE,131,3.6,7.6,44,0.00,,,0.00,WSDL version 423,2013-01-22 12:47:00,
2013-01-22 07:53:00,19.4,3.0,-100.00,SE,141,5.4,7.2,44,0.00,,,0.00,WSDL version 423,2013-01-22 12:53:00,
2013-01-22 07:59:00,19.3,2.8,-100.00,SE,124,4.8,7.8,44,0.00,,,0.00,WSDL version 423,2013-01-22 12:59:00,
2013-01-22 08:05:00,19.4,2.9,-100.00,ESE,119,6.6,9.8,44,-99.99,,,-99.99,WSDL version 423,2013-01-22 13:05:00,
2013-01-22 08:11:00,19.4,3.0,-100.00,SE,129,4.3,9.8,44,0.00,,,0.00,WSDL version 423,2013-01-22 13:11:00,
2013-01-22 08:17:00,19.5,2.9,-100.00,ESE,118,4.3,8.9,43,0.00,,,0.00,WSDL version 423,2013-01-22 13:17:00,
2013-01-22 08:23:00,19.6,2.7,-100.00,SE,124,5.6,10.5,43,0.00,,,0.00,WSDL version 423,2013-01-22 13:23:00,
2013-01-22 08:29:00,19.5,2.6,-100.00,ESE,118,7.7,15.4,43,0.00,,,0.00,WSDL version 423,2013-01-22 13:29:00,
2013-01-22 08:35:00,19.6,2.7,-100.00,ESE,113,5.4,15.4,43,0.00,,,0.00,WSDL version 423,2013-01-22 13:35:00,
2013-01-22 08:41:00,19.8,2.9,-100.00,East,98,4.5,12.3,43,0.00,,,0.00,WSDL version 423,2013-01-22 13:41:00,
2013-01-22 08:47:00,19.9,3.0,-100.00,ESE,119,7.3,13.9,43,0.00,,,0.00,WSDL version 423,2013-01-22 13:47:00,
2013-01-22 08:53:00,19.9,3.0,-100.00,SSE,148,7.1,13.9,43,0.00,,,0.00,WSDL version 423,2013-01-22 13:53:00,
2013-01-22 08:59:00,20.0,3.1,-100.00,SE,130,5.3,14.8,43,0.00,,,0.00,WSDL version 423,2013-01-22 13:59:00,
2013-01-22 09:05:00,20.2,3.0,-100.00,ESE,110,6.3,11.4,42,0.00,,,0.00,WSDL version 423,2013-01-22 14:05:00,
2013-01-22 09:11:00,20.3,2.8,-100.00,ESE,119,6.8,11.4,41,0.00,,,0.00,WSDL version 423,2013-01-22 14:11:00,
2013-01-22 09:17:00,20.3,2.3,-100.00,SE,135,6.9,13.0,40,0.00,,,0.00,WSDL version 423,2013-01-22 14:17:00,
2013-01-22 09:23:00,20.3,1.5,-100.00,SE,138,6.8,15.4,39,0.00,,,0.00,WSDL version 423,2013-01-22 14:23:00,
2013-01-22 09:29:00,20.3,0.9,-100.00,SE,127,8.4,15.4,37,0.00,,,0.00,WSDL version 423,2013-01-22 14:29:00,
2013-01-22 09:35:00,20.3,0.3,-100.00,SSE,149,6.5,16.1,37,0.00,,,0.00,WSDL version 423,2013-01-22 14:35:00,
2013-01-22 09:41:00,20.6,0.8,-100.00,SE,145,6.1,16.1,37,0.00,,,0.00,WSDL version 423,2013-01-22 14:41:00,
2013-01-22 09:47:00,20.8,0.8,-100.00,ESE,115,7.6,12.3,36,0.00,,,0.00,WSDL version 423,2013-01-22 14:47:00,
2013-01-22 09:53:00,20.8,0.4,-100.00,SE,132,7.3,13.0,36,0.00,,,0.00,WSDL version 423,2013-01-22 14:53:00,
2013-01-22 09:59:00,21.0,0.1,-100.00,ESE,122,8.2,13.0,35,0.00,,,0.00,WSDL version 423,2013-01-22 14:59:00,
2013-01-22 10:05:00,20.8,-0.1,-100.00,SE,135,7.4,14.5,35,0.00,,,0.00,WSDL version 423,2013-01-22 15:05:00,
2013-01-22 10:11:00,20.9,0.0,-100.00,SE,124,5.7,14.3,35,0.00,,,0.00,WSDL version 423,2013-01-22 15:11:00,
2013-01-22 10:17:00,21.0,0.0,-100.00,ESE,104,7.0,15.4,35,0.00,,,0.00,WSDL version 423,2013-01-22 15:17:00,
2013-01-22 10:23:00,21.0,0.1,-100.00,SE,125,5.0,15.4,35,0.00,,,0.00,WSDL version 423,2013-01-22 15:23:00,
2013-01-22 10:29:00,20.8,0.1,-100.00,ESE,113,5.0,13.2,36,0.00,,,0.00,WSDL version 423,2013-01-22 15:29:00,
2013-01-22 10:35:00,21.4,0.6,-100.00,SE,141,5.6,11.4,35,0.00,,,0.00,WSDL version 423,2013-01-22 15:35:00,
2013-01-22 10:41:00,21.4,0.4,-100.00,SE,127,7.4,12.8,35,0.00,,,0.00,WSDL version 423,2013-01-22 15:41:00,
2013-01-22 10:47:00,21.3,0.1,-100.00,ESE,107,5.7,12.5,35,0.00,,,0.00,WSDL version 423,2013-01-22 15:47:00,
2013-01-22 10:53:00,21.4,-0.4,-100.00,SE,125,8.0,13.4,33,0.00,,,0.00,WSDL version 423,2013-01-22 15:53:00,
2013-01-22 10:59:00,21.2,-0.6,-100.00,SE,141,8.0,21.3,33,0.00,,,0.00,WSDL version 423,2013-01-22 15:59:00,
2013-01-22 11:05:00,21.3,-0.6,-100.00,ESE,118,6.9,14.5,33,0.00,,,0.00,WSDL version 423,2013-01-22 16:05:00,
2013-01-22 11:11:00,21.7,-0.4,-100.00,SE,124,4.6,12.5,33,0.00,,,0.00,WSDL version 423,2013-01-22 16:11:00,
2013-01-22 11:17:00,22.0,-0.1,-100.00,SE,141,8.2,14.1,33,0.00,,,0.00,WSDL version 423,2013-01-22 16:17:00,
2013-01-22 11:23:00,21.6,-0.5,-100.00,SSE,150,8.3,15.4,33,0.00,,,0.00,WSDL version 423,2013-01-22 16:23:00,
2013-01-22 11:29:00,21.8,-0.4,-100.00,SE,132,4.3,15.4,33,0.00,,,0.00,WSDL version 423,2013-01-22 16:29:00,
2013-01-22 11:35:00,22.0,-0.2,-100.00,SE,129,5.4,11.0,33,0.00,,,0.00,WSDL version 423,2013-01-22 16:35:00,
2013-01-22 11:41:00,21.8,-0.4,-100.00,SE,138,6.7,12.5,33,0.00,,,0.00,WSDL version 423,2013-01-22 16:41:00,
2013-01-22 11:47:00,21.9,-0.3,-100.00,ESE,108,5.6,13.6,33,0.00,,,0.00,WSDL version 423,2013-01-22 16:47:00,
2013-01-22 11:53:00,21.9,-0.3,-100.00,East,90,4.5,16.8,33,0.00,,,0.00,WSDL version 423,2013-01-22 16:53:00,
2013-01-22 11:59:00,22.0,-0.2,-100.00,SE,146,3.8,10.7,33,0.00,,,0.00,WSDL version 423,2013-01-22 16:59:00,
2013-01-22 12:05:00,21.7,-0.6,-100.00,SE,135,6.0,11.9,32,0.00,,,0.00,WSDL version 423,2013-01-22 17:05:00,
2013-01-22 12:11:00,21.7,-0.8,-100.00,East,79,4.8,13.6,32,0.00,,,0.00,WSDL version 423,2013-01-22 17:11:00,
2013-01-22 12:17:00,21.9,-0.5,-100.00,SE,138,7.6,13.2,32,0.00,,,0.00,WSDL version 423,2013-01-22 17:17:00,
2013-01-22 12:23:00,22.0,-0.2,-100.00,ESE,109,5.8,13.2,33,0.00,,,0.00,WSDL version 423,2013-01-22 17:23:00,
2013-01-22 12:29:00,22.1,-0.2,-100.00,SE,138,6.5,10.3,33,0.00,,,0.00,WSDL version 423,2013-01-22 17:29:00,
2013-01-22 12:35:00,21.9,-0.8,-100.00,East,100,7.5,17.9,32,0.00,,,0.00,WSDL version 423,2013-01-22 17:35:00,
2013-01-22 12:41:00,22.1,-0.7,-100.00,SE,135,6.3,12.3,32,0.00,,,0.00,WSDL version 423,2013-01-22 17:41:00,
2013-01-22 12:47:00,22.1,-0.7,-100.00,SE,141,6.7,13.0,32,0.00,,,0.00,WSDL version 423,2013-01-22 17:47:00,
2013-01-22 12:53:00,21.9,-0.8,-100.00,ESE,123,8.0,13.2,32,0.00,,,0.00,WSDL version 423,2013-01-22 17:53:00,
2013-01-22 12:59:00,21.8,-0.9,-100.00,SE,129,6.4,16.8,32,0.00,,,0.00,WSDL version 423,2013-01-22 17:59:00,
2013-01-22 13:05:00,21.9,-0.9,-100.00,East,93,6.5,17.2,32,0.00,,,0.00,WSDL version 423,2013-01-22 18:05:00,
2013-01-22 13:11:00,21.9,-0.8,-100.00,SE,135,7.8,15.4,32,0.00,,,0.00,WSDL version 423,2013-01-22 18:11:00,
2013-01-22 13:17:00,21.7,-1.0,-100.00,ESE,118,7.5,15.4,32,0.00,,,0.00,WSDL version 423,2013-01-22 18:17:00,
2013-01-22 13:23:00,21.7,-1.0,-100.00,East,90,6.9,14.1,32,0.00,,,0.00,WSDL version 423,2013-01-22 18:23:00,
2013-01-22 13:29:00,21.9,-0.9,-100.00,SE,129,6.1,12.8,32,0.00,,,0.00,WSDL version 423,2013-01-22 18:29:00,
2013-01-22 13:35:00,22.0,-0.7,-100.00,SE,128,4.7,10.7,32,0.00,,,0.00,WSDL version 423,2013-01-22 18:35:00,
2013-01-22 13:41:00,22.1,-1.0,-100.00,SE,132,7.4,15.9,32,0.00,,,0.00,WSDL version 423,2013-01-22 18:41:00,
2013-01-22 13:47:00,22.0,-0.9,-100.00,SE,129,5.9,15.9,32,0.00,,,0.00,WSDL version 423,2013-01-22 18:47:00,
2013-01-22 13:53:00,22.1,-1.0,-100.00,SE,145,6.6,11.0,30,0.00,,,0.00,WSDL version 423,2013-01-22 18:53:00,
2013-01-22 13:59:00,21.9,-2.1,-100.00,SE,138,6.7,10.7,30,0.00,,,0.00,WSDL version 423,2013-01-22 18:59:00,
2013-01-22 14:05:00,21.8,-2.2,-100.00,ESE,121,5.5,11.4,30,0.00,,,0.00,WSDL version 423,2013-01-22 19:05:00,
2013-01-22 14:11:00,21.9,-2.1,-100.00,ESE,121,8.6,16.6,30,0.00,,,0.00,WSDL version 423,2013-01-22 19:11:00,
2013-01-22 14:17:00,21.8,-2.0,-100.00,SE,133,5.6,16.6,30,0.00,,,0.00,WSDL version 423,2013-01-22 19:17:00,
2013-01-22 14:23:00,21.9,-0.8,-100.00,SE,125,6.6,13.0,32,0.00,,,0.00,WSDL version 423,2013-01-22 19:23:00,
2013-01-22 14:29:00,22.1,-0.7,-100.00,SE,125,4.6,13.0,32,0.00,,,0.00,WSDL version 423,2013-01-22 19:29:00,
2013-01-22 14:35:00,22.1,-0.7,-100.00,ESE,118,4.9,10.7,32,0.00,,,0.00,WSDL version 423,2013-01-22 19:35:00,
2013-01-22 14:41:00,21.6,-1.1,-100.00,SSE,163,6.2,15.4,32,0.00,,,0.00,WSDL version 423,2013-01-22 19:41:00,
2013-01-22 14:47:00,21.4,-1.3,-100.00,ESE,113,5.8,15.4,32,0.00,,,0.00,WSDL version 423,2013-01-22 19:47:00,
2013-01-22 14:53:00,21.4,-1.3,-100.00,SE,140,7.7,14.5,32,0.00,,,0.00,WSDL version 423,2013-01-22 19:53:00,
2013-01-22 14:59:00,21.3,-1.4,-100.00,ESE,121,5.6,14.5,32,0.00,,,0.00,WSDL version 423,2013-01-22 19:59:00,
2013-01-22 15:05:00,21.4,-1.3,-100.00,SSE,150,8.4,13.0,32,0.00,,,0.00,WSDL version 423,2013-01-22 20:05:00,
2013-01-22 15:11:00,21.2,-1.5,-100.00,ESE,118,6.5,13.0,32,0.00,,,0.00,WSDL version 423,2013-01-22 20:11:00,
2013-01-22 15:17:00,21.1,-1.6,-100.00,ESE,108,6.2,11.0,32,0.00,,,0.00,WSDL version 423,2013-01-22 20:17:00,
2013-01-22 15:23:00,20.8,-1.8,-100.00,East,93,6.8,11.0,32,0.00,,,0.00,WSDL version 423,2013-01-22 20:23:00,
2013-01-22 15:29:00,20.9,-1.8,-100.00,SE,129,7.2,12.5,32,0.00,,,0.00,WSDL version 423,2013-01-22 20:29:00,
2013-01-22 15:35:00,20.7,-1.9,-100.00,SE,129,4.0,12.5,32,0.00,,,0.00,WSDL version 423,2013-01-22 20:35:00,
2013-01-22 15:41:00,20.8,-1.8,-100.00,SE,130,6.3,12.5,32,0.00,,,0.00,WSDL version 423,2013-01-22 20:41:00,
2013-01-22 15:47:00,20.8,-1.9,-100.00,SE,135,3.3,9.8,32,0.00,,,0.00,WSDL version 423,2013-01-22 20:47:00,
2013-01-22 15:53:00,20.7,-2.7,-100.00,SE,125,6.3,11.9,30,0.00,,,0.00,WSDL version 423,2013-01-22 20:53:00,
2013-01-22 15:59:00,20.5,-2.6,-100.00,ESE,115,6.0,11.9,31,0.00,,,0.00,WSDL version 423,2013-01-22 20:59:00,
2013-01-22 16:05:00,20.3,-2.7,-100.00,SE,141,5.4,11.0,32,0.00,,,0.00,WSDL version 423,2013-01-22 21:05:00,
2013-01-22 16:11:00,20.3,-2.3,-100.00,ESE,122,4.3,10.7,32,0.00,,,0.00,WSDL version 423,2013-01-22 21:11:00,
2013-01-22 16:17:00,20.3,-2.3,-100.00,ESE,123,4.4,11.9,32,0.00,,,0.00,WSDL version 423,2013-01-22 21:17:00,
2013-01-22 16:23:00,20.2,-2.4,-100.00,SE,132,6.1,11.9,32,0.00,,,0.00,WSDL version 423,2013-01-22 21:23:00,
2013-01-22 16:29:00,19.8,-2.7,-100.00,ESE,109,6.2,10.7,32,0.00,,,0.00,WSDL version 423,2013-01-22 21:29:00,
2013-01-22 16:32:00,19.7,-2.9,-100.00,ESE,119,5.2,10.7,32,0.00,,,0.00,WSDL version 423,2013-01-22 21:32:00,
2013-01-22 16:38:00,19.4,-2.5,-100.00,SSE,149,4.6,8.5,33,0.00,,,0.00,WSDL version 423,2013-01-22 21:38:00,
2013-01-22 16:44:00,19.2,-2.7,-100.00,SE,135,4.0,8.5,33,0.00,,,0.00,WSDL version 423,2013-01-22 21:44:00,
2013-01-22 16:50:00,19.1,-2.8,-100.00,SE,135,4.7,9.8,33,0.00,,,0.00,WSDL version 423,2013-01-22 21:50:00,
2013-01-22 16:56:00,18.9,-3.0,-100.00,ESE,121,4.3,10.7,33,0.00,,,0.00,WSDL version 423,2013-01-22 21:56:00,
2013-01-22 17:02:00,18.7,-3.1,-100.00,SE,138,5.8,11.4,33,0.00,,,0.00,WSDL version 423,2013-01-22 22:02:00,
2013-01-22 17:08:00,18.5,-3.4,-100.00,ESE,113,3.5,11.4,33,0.00,,,0.00,WSDL version 423,2013-01-22 22:08:00,
2013-01-22 17:14:00,18.5,-3.4,-100.00,ESE,119,4.7,8.5,33,0.00,,,0.00,WSDL version 423,2013-01-22 22:14:00,
2013-01-22 17:20:00,18.3,-3.5,-100.00,SE,143,3.1,8.7,33,0.00,,,0.00,WSDL version 423,2013-01-22 22:20:00,
2013-01-22 17:26:00,18.3,-3.5,-100.00,ESE,110,4.4,8.7,33,0.00,,,0.00,WSDL version 423,2013-01-22 22:26:00,
2013-01-22 17:32:00,18.3,-3.6,-100.00,ESE,104,3.7,10.7,33,0.00,,,0.00,WSDL version 423,2013-01-22 22:32:00,
2013-01-22 17:38:00,18.1,-3.7,-100.00,SE,141,6.4,10.7,33,0.00,,,0.00,WSDL version 423,2013-01-22 22:38:00,
2013-01-22 17:44:00,18.0,-3.8,-100.00,SSE,151,4.0,10.1,33,0.00,,,0.00,WSDL version 423,2013-01-22 22:44:00,
2013-01-22 17:50:00,17.9,-3.9,-100.00,ESE,113,6.0,10.3,33,0.00,,,0.00,WSDL version 423,2013-01-22 22:50:00,
2013-01-22 17:56:00,17.8,-4.0,-100.00,ESE,116,4.0,10.3,33,0.00,,,0.00,WSDL version 423,2013-01-22 22:56:00,
2013-01-22 18:02:00,17.8,-4.0,-100.00,SE,141,4.0,10.3,33,0.00,,,0.00,WSDL version 423,2013-01-22 23:02:00,
2013-01-22 18:08:00,17.7,-3.8,-100.00,SE,145,4.7,8.7,34,0.00,,,0.00,WSDL version 423,2013-01-22 23:08:00,
2013-01-22 18:14:00,17.7,-3.7,-100.00,SE,129,4.2,8.7,34,0.00,,,0.00,WSDL version 423,2013-01-22 23:14:00,
2013-01-22 18:20:00,17.6,-3.6,-100.00,SE,138,3.9,10.1,34,0.00,,,0.00,WSDL version 423,2013-01-22 23:20:00,
2013-01-22 18:26:00,17.5,-3.7,-100.00,ESE,103,2.6,10.1,34,0.00,,,0.00,WSDL version 423,2013-01-22 23:26:00,
2013-01-22 18:32:00,17.3,-3.9,-100.00,SSE,164,3.4,6.0,34,0.00,,,0.00,WSDL version 423,2013-01-22 23:32:00,
2013-01-22 18:38:00,17.2,-4.0,-100.00,SE,145,4.0,8.1,34,0.00,,,0.00,WSDL version 423,2013-01-22 23:38:00,
2013-01-22 18:44:00,17.2,-4.0,-100.00,SE,130,2.9,10.3,34,0.00,,,0.00,WSDL version 423,2013-01-22 23:44:00,
2013-01-22 18:50:00,17.2,-4.0,-100.00,SE,145,2.6,10.3,34,0.00,,,0.00,WSDL version 423,2013-01-22 23:50:00,
2013-01-22 18:56:00,17.1,-4.1,-100.00,ESE,116,3.0,6.5,34,0.00,,,0.00,WSDL version 423,2013-01-22 23:56:00,
2013-01-22 19:02:00,16.9,-4.3,-100.00,SE,128,4.0,7.2,34,0.00,,,0.00,WSDL version 423,2013-01-23 00:02:00,
2013-01-22 19:08:00,16.9,-4.3,-100.00,SE,128,3.6,7.6,34,0.00,,,0.00,WSDL version 423,2013-01-23 00:08:00,
2013-01-22 19:14:00,16.9,-4.3,-100.00,South,180,3.7,7.4,34,0.00,,,0.00,WSDL version 423,2013-01-23 00:14:00,
2013-01-22 19:20:00,16.9,-4.3,-100.00,SE,124,5.3,10.3,34,0.00,,,0.00,WSDL version 423,2013-01-23 00:20:00,
2013-01-22 19:26:00,16.8,-4.4,-100.00,SE,129,3.1,10.3,34,0.00,,,0.00,WSDL version 423,2013-01-23 00:26:00,
2013-01-22 19:32:00,16.7,-4.4,-100.00,SSE,163,4.4,8.5,34,0.00,,,0.00,WSDL version 423,2013-01-23 00:32:00,
2013-01-22 19:38:00,16.7,-4.4,-100.00,SE,129,4.6,15.7,34,0.00,,,0.00,WSDL version 423,2013-01-23 00:38:00,
2013-01-22 19:44:00,16.6,-4.6,-100.00,SE,141,4.1,10.5,34,0.00,,,0.00,WSDL version 423,2013-01-23 00:44:00,
2013-01-22 19:50:00,16.5,-4.7,-100.00,SE,132,2.3,6.7,34,0.00,,,0.00,WSDL version 423,2013-01-23 00:50:00,
2013-01-22 19:56:00,16.2,-4.9,-100.00,ESE,109,4.2,8.5,34,0.00,,,0.00,WSDL version 423,2013-01-23 00:56:00,
2013-01-22 20:02:00,16.2,-4.9,-100.00,East,98,3.2,9.6,34,0.00,,,0.00,WSDL version 423,2013-01-23 01:02:00,
2013-01-22 20:08:00,16.2,-4.9,-100.00,SE,143,4.9,7.8,34,0.00,,,0.00,WSDL version 423,2013-01-23 01:08:00,
2013-01-22 20:14:00,16.0,-5.1,-100.00,ESE,113,4.0,7.8,34,0.00,,,0.00,WSDL version 423,2013-01-23 01:14:00,
2013-01-22 20:20:00,16.0,-5.1,-100.00,ESE,103,4.3,8.5,34,0.00,,,0.00,WSDL version 423,2013-01-23 01:20:00,
2013-01-22 20:26:00,16.0,-5.1,-100.00,SE,133,4.0,8.1,34,0.00,,,0.00,WSDL version 423,2013-01-23 01:26:00,
2013-01-22 20:32:00,15.9,-4.9,-100.00,SE,141,5.4,10.5,35,0.00,,,0.00,WSDL version 423,2013-01-23 01:32:00,
2013-01-22 20:38:00,15.8,-4.7,-100.00,ESE,113,4.8,10.5,35,0.00,,,0.00,WSDL version 423,2013-01-23 01:38:00,
2013-01-22 20:44:00,15.8,-4.7,-100.00,ESE,121,3.2,12.3,35,0.00,,,0.00,WSDL version 423,2013-01-23 01:44:00,
2013-01-22 20:52:00,15.5,-5.0,-100.00,SE,135,3.3,6.5,35,0.00,,,0.00,WSDL version 423,2013-01-23 01:52:00,
2013-01-22 20:58:00,15.5,-5.0,-100.00,SE,132,3.4,8.7,35,0.00,,,0.00,WSDL version 423,2013-01-23 01:58:00,
2013-01-22 21:04:00,15.6,-4.9,-100.00,ESE,106,2.8,9.2,35,0.00,,,0.00,WSDL version 423,2013-01-23 02:04:00,
2013-01-22 21:10:00,15.8,-4.7,-100.00,ESE,115,3.7,9.8,36,0.00,,,0.00,WSDL version 423,2013-01-23 02:10:00,
2013-01-22 21:16:00,15.8,-4.2,-100.00,South,180,2.6,6.7,36,0.00,,,0.00,WSDL version 423,2013-01-23 02:16:00,
2013-01-22 21:22:00,15.8,-4.2,-100.00,ESE,113,4.1,10.1,36,0.00,,,0.00,WSDL version 423,2013-01-23 02:22:00,
2013-01-22 21:28:00,15.8,-4.2,-100.00,SE,127,3.2,10.1,36,0.00,,,0.00,WSDL version 423,2013-01-23 02:28:00,
2013-01-22 21:34:00,15.8,-4.1,-100.00,ESE,113,3.3,6.5,37,0.00,,,0.00,WSDL version 423,2013-01-23 02:34:00,
2013-01-22 21:40:00,15.6,-2.6,-100.00,ESE,103,3.8,8.1,40,0.00,,,0.00,WSDL version 423,2013-01-23 02:40:00,
2013-01-22 21:46:00,15.4,-2.3,-100.00,SE,124,3.6,10.1,41,0.00,,,0.00,WSDL version 423,2013-01-23 02:46:00,
2013-01-22 21:52:00,15.4,-2.1,-100.00,ESE,108,4.1,10.1,41,0.00,,,0.00,WSDL version 423,2013-01-23 02:52:00,
2013-01-22 21:58:00,15.3,-1.1,-100.00,South,169,3.2,8.7,44,0.00,,,0.00,WSDL version 423,2013-01-23 02:58:00,
2013-01-22 22:04:00,15.1,-1.0,-100.00,SE,124,3.1,8.7,45,0.00,,,0.00,WSDL version 423,2013-01-23 03:04:00,
2013-01-22 22:10:00,15.1,-0.7,-100.00,ESE,118,4.4,7.6,45,0.00,,,0.00,WSDL version 423,2013-01-23 03:10:00,
2013-01-22 22:16:00,14.8,-1.0,-100.00,SE,135,3.5,7.8,44,0.00,,,0.00,WSDL version 423,2013-01-23 03:16:00,
2013-01-22 22:22:00,14.7,-1.8,-100.00,SE,135,3.7,8.7,42,0.00,,,0.00,WSDL version 423,2013-01-23 03:22:00,
2013-01-22 22:28:00,14.6,-3.3,-100.00,ESE,121,3.8,8.7,40,0.00,,,0.00,WSDL version 423,2013-01-23 03:28:00,
2013-01-22 22:34:00,14.5,-4.2,-100.00,SE,139,3.4,8.5,38,0.00,,,0.00,WSDL version 423,2013-01-23 03:34:00,
2013-01-22 22:40:00,14.4,-5.0,-100.00,SE,133,3.8,9.6,37,0.00,,,0.00,WSDL version 423,2013-01-23 03:40:00,
2013-01-22 22:46:00,14.3,-5.6,-100.00,SSE,154,3.8,9.8,36,0.00,,,0.00,WSDL version 423,2013-01-23 03:46:00,
2013-01-22 22:52:00,14.2,-5.7,-100.00,ESE,119,5.8,10.7,36,0.00,,,0.00,WSDL version 423,2013-01-23 03:52:00,
2013-01-22 22:58:00,14.1,-6.1,-100.00,ESE,113,4.7,12.3,36,0.00,,,0.00,WSDL version 423,2013-01-23 03:58:00,
2013-01-22 23:04:00,13.9,-5.9,-100.00,East,101,6.2,12.3,36,0.00,,,0.00,WSDL version 423,2013-01-23 04:04:00,
2013-01-22 23:10:00,13.8,-6.0,-100.00,SE,129,2.7,12.3,36,0.00,,,0.00,WSDL version 423,2013-01-23 04:10:00,
2013-01-22 23:16:00,13.8,-6.0,-100.00,SSE,154,5.6,8.5,36,0.00,,,0.00,WSDL version 423,2013-01-23 04:16:00,
2013-01-22 23:23:00,13.6,-6.2,-100.00,ESE,118,2.6,7.8,36,0.00,,,0.00,WSDL version 423,2013-01-23 04:23:00,
2013-01-22 23:29:00,13.5,-6.3,-100.00,ESE,118,3.2,8.1,36,0.00,,,0.00,WSDL version 423,2013-01-23 04:29:00,
2013-01-22 23:35:00,13.5,-6.3,-100.00,ESE,103,3.4,8.1,36,0.00,,,0.00,WSDL version 423,2013-01-23 04:35:00,
2013-01-22 23:41:00,13.4,-6.4,-100.00,SE,131,2.1,7.6,36,0.00,,,0.00,WSDL version 423,2013-01-23 04:41:00,
2013-01-22 23:47:00,13.3,-6.5,-100.00,SE,124,3.3,7.4,36,0.00,,,0.00,WSDL version 423,2013-01-23 04:47:00,
2013-01-22 23:53:00,13.2,-6.6,-100.00,ESE,121,2.4,7.4,36,0.00,,,0.00,WSDL version 423,2013-01-23 04:53:00,
2013-01-22 23:59:00,13.2,-6.6,-100.00,South,184,5.4,9.6,36,0.00,,,0.00,WSDL version 423,2013-01-23 04:59:00,